Flight Track Log - Related Links

Times and Time Zones

All times are in EDT time to prevent confusion due to time zone crossing. See the SWA378 flight status page for this flight to view local times or setup timezone preferences in your user account.

Time Position Orientation Groundspeed Altitude Reporting Facility
EDT Latitude Longitude Course Direction KTS MPH feet Rate Location/Type
Thu 11:38:10 AM 37.3667 -121.9333 322° Northwest 150 173 1,000  Level Northern Cal TRACON
Thu 11:39:10 AM 37.4167 -121.9833 322° Northwest 189 217 3,600 2,000 Climbing Northern Cal TRACON
Thu 11:40:10 AM 37.4333 -121.9333 67° East 232 267 5,000 750 Climbing Northern Cal TRACON
Thu 11:41:10 AM 37.4000 -121.8667 122° Southeast 232 267 5,100 1,475 Climbing Northern Cal TRACON
Thu 11:42:12 AM 37.3475 -121.8089 139° Southeast 241 277 8,000 2,829 Climbing Oakland Center
Thu 11:43:13 AM 37.2792 -121.7322 138° Southeast 308 354 10,900 3,220 Climbing Oakland Center
Thu 11:44:15 AM 37.2067 -121.6497 138° Southeast 349 402 14,600 3,366 Climbing Oakland Center
Thu 11:45:16 AM 37.1281 -121.5617 138° Southeast 375 432 17,800 3,122 Climbing Oakland Center
Thu 11:46:18 AM 37.0519 -121.4811 140° Southeast 387 445 21,000 3,122 Climbing Oakland Center
Thu 11:47:19 AM 36.9522 -121.3689 138° Southeast 403 464 24,200 2,683 Climbing Oakland Center
Thu 11:48:21 AM 36.8625 -121.2722 139° Southeast 423 487 26,500 1,887 Climbing Oakland Center
Thu 11:49:23 AM 36.7783 -121.1864 141° Southeast 448 516 28,100 1,951 Climbing Oakland Center
Thu 11:50:24 AM 36.6608 -121.0556 138° Southeast 469 540 30,500 2,000 Climbing Oakland Center
Thu 11:51:26 AM 36.5578 -120.9478 140° Southeast 481 554 32,200 1,756 Climbing Oakland Center
Thu 11:52:27 AM 36.4539 -120.8350 139° Southeast 493 567 34,100 1,366 Climbing Oakland Center
Thu 11:53:29 AM 36.3508 -120.7231 139° Southeast 492 566 35,000 439 Climbing Oakland Center
Thu 11:54:30 AM 36.2467 -120.6111 139° Southeast 495 570 35,000  Level Oakland Center
Thu 11:55:32 AM 36.1428 -120.5017 140° Southeast 490 564 35,000  Level Oakland Center
Thu 11:56:33 AM 36.0386 -120.3903 139° Southeast 493 567 35,000  Level Oakland Center
Thu 11:57:35 AM 35.9350 -120.2814 140° Southeast 489 563 35,000  Level Oakland Center
Thu 11:58:36 AM 35.8117 -120.1503 139° Southeast 486 559 35,000  Level Oakland Center
Thu 11:59:38 AM 35.7078 -120.0419 140° Southeast 485 558 35,000  Level Oakland Center
Thu 12:00:40 PM 35.6025 -119.9367 141° Southeast 484 557 35,000  Level Oakland Center
Thu 12:01:41 PM 35.4908 -119.8428 146° Southeast 482 555 35,000  Level Oakland Center
Thu 12:02:43 PM 35.3797 -119.7483 145° Southeast 483 556 35,000  Level Oakland Center
Thu 12:03:49 PM 35.2692 -119.6533 145° Southeast 481 554 35,000 -94 Level Los Angeles Center
Thu 12:04:51 PM 35.1600 -119.5583 145° Southeast 481 554 34,800 -1,694 Descending Los Angeles Center
Thu 12:05:53 PM 35.0275 -119.4467 145° Southeast 481 554 31,500 -2,806 Descending Los Angeles Center
Thu 12:06:55 PM 34.9183 -119.3539 145° Southeast 477 549 29,000 -2,371 Descending Los Angeles Center
Thu 12:07:57 PM 34.8139 -119.2633 145° Southeast 465 535 26,600 -2,274 Descending Los Angeles Center
Thu 12:08:59 PM 34.7119 -119.1786 146° Southeast 448 516 24,300 -2,177 Descending Los Angeles Center
Thu 12:10:01 PM 34.6094 -119.0931 146° Southeast 441 507 22,100 -2,129 Descending Los Angeles Center
Thu 12:11:03 PM 34.5144 -119.0131 145° Southeast 413 475 19,900 -2,177 Descending Los Angeles Center
Thu 12:12:05 PM 34.4225 -118.9375 146° Southeast 398 458 17,600 -2,371 Descending Los Angeles Center
Thu 12:13:07 PM 34.3106 -118.8650 152° Southeast 377 434 15,000 -2,177 Descending Los Angeles Center
Thu 12:14:09 PM 34.2103 -118.8286 163° South 373 429 13,100 -1,500 Descending Los Angeles Center
Thu 12:15:11 PM 34.1128 -118.7919 163° South 368 423 11,900 -1,016 Descending Los Angeles Center
Thu 12:16:13 PM 34.0342 -118.7178 142° Southeast 328 377 11,000 -1,210 Descending Los Angeles Center
Thu 12:17:15 PM 34.0256 -118.6206 96° East 292 336 9,400 -1,694 Descending Los Angeles Center
Thu 12:18:17 PM 34.0150 -118.5147 97° East 293 337 7,500 -1,161 Descending Los Angeles Center
Thu 12:19:19 PM 34.0147 -118.4253 90° East 266 306 7,000 -960 Descending Los Angeles Center
Thu 12:20:22 PM 34.0225 -118.3364 84° East 264 304 5,500 -1,344 Descending Los Angeles Center
Thu 12:21:24 PM 34.0328 -118.2506 82° East 261 300 4,200 -1,355 Descending Los Angeles Center
Thu 12:22:26 PM 34.0447 -118.1700 80° East 248 285 2,700 -774 Descending Los Angeles Center
Thu 12:23:28 PM 34.0108 -118.1228 131° Southeast 215 247 2,600 -293 Descending Los Angeles Center
Thu 12:23:48 PM 33.9833 -118.1333 198° South 201 231 2,300 -387 Descending Southern California TRACON
Thu 12:24:30 PM 33.9761 -118.1706 257° West 202 232 2,200 -58 Descending Los Angeles Center
Thu 12:25:32 PM 33.9686 -118.2461 263° West 194 223 2,200 -290 Level Los Angeles Center
Thu 12:26:34 PM 33.9614 -118.3089 262° West 193 222 1,600 -677 Descending Los Angeles Center
Thu 12:27:36 PM 33.9578 -118.3581 265° West 166 191 800 -726 Descending Los Angeles Center
Thu 12:28:38 PM 33.9528 -118.4044 263° West 149 171 100 -677 Descending Los Angeles Center
Thu 12:30:00 PM 33.9425 -118.4081 259° West  Level Estimated
Thu 12:37:00 PM 33.9425 -118.4081 259° West  Level Estimated

Login

Don't have an account? Register now (free) for customized features, flight alerts, and more!